sensor_id;sensor_type;location;lat;lon;timestamp;P1;P2;P0
69224;PMS1003;56333;51.306;17.056;2024-02-23T00:01:45;7.30;5.50;
69224;PMS1003;56333;51.306;17.056;2024-02-23T00:03:13;6.10;5.50;
69224;PMS1003;56333;51.306;17.056;2024-02-23T00:04:42;6.60;5.40;
69224;PMS1003;56333;51.306;17.056;2024-02-23T00:06:10;6.00;4.70;
69224;PMS1003;56333;51.306;17.056;2024-02-23T00:07:40;6.10;5.00;
69224;PMS1003;56333;51.306;17.056;2024-02-23T00:09:08;5.20;4.40;
69224;PMS1003;56333;51.306;17.056;2024-02-23T00:10:37;6.00;4.70;
69224;PMS1003;56333;51.306;17.056;2024-02-23T00:12:06;4.70;4.00;
69224;PMS1003;56333;51.306;17.056;2024-02-23T00:13:35;5.70;4.30;
69224;PMS1003;56333;51.306;17.056;2024-02-23T00:15:04;5.60;4.40;
69224;PMS1003;56333;51.306;17.056;2024-02-23T00:16:38;4.80;3.80;
69224;PMS1003;56333;51.306;17.056;2024-02-23T00:18:07;5.60;4.40;
69224;PMS1003;56333;51.306;17.056;2024-02-23T00:19:38;5.10;4.10;
69224;PMS1003;56333;51.306;17.056;2024-02-23T00:21:07;5.30;4.20;
69224;PMS1003;56333;51.306;17.056;2024-02-23T00:22:37;4.90;3.90;
69224;PMS1003;56333;51.306;17.056;2024-02-23T00:24:06;5.70;4.50;
69224;PMS1003;56333;51.306;17.056;2024-02-23T00:25:35;5.90;4.40;
69224;PMS1003;56333;51.306;17.056;2024-02-23T00:27:04;5.30;4.20;
69224;PMS1003;56333;51.306;17.056;2024-02-23T00:28:32;4.90;3.70;
69224;PMS1003;56333;51.306;17.056;2024-02-23T00:30:01;5.90;4.00;
69224;PMS1003;56333;51.306;17.056;2024-02-23T00:31:29;5.00;3.80;
69224;PMS1003;56333;51.306;17.056;2024-02-23T00:32:58;5.60;4.50;
69224;PMS1003;56333;51.306;17.056;2024-02-23T00:34:27;4.90;3.70;
69224;PMS1003;56333;51.306;17.056;2024-02-23T00:35:57;4.70;3.20;
69224;PMS1003;56333;51.306;17.056;2024-02-23T00:37:25;4.00;3.10;
69224;PMS1003;56333;51.306;17.056;2024-02-23T00:38:54;4.20;3.20;
69224;PMS1003;56333;51.306;17.056;2024-02-23T00:40:22;5.40;3.10;
69224;PMS1003;56333;51.306;17.056;2024-02-23T00:41:53;4.60;3.00;
69224;PMS1003;56333;51.306;17.056;2024-02-23T00:43:23;4.10;3.10;
69224;PMS1003;56333;51.306;17.056;2024-02-23T00:44:51;3.90;2.80;
69224;PMS1003;56333;51.306;17.056;2024-02-23T00:46:19;4.00;2.70;
69224;PMS1003;56333;51.306;17.056;2024-02-23T00:47:48;3.50;2.80;
69224;PMS1003;56333;51.306;17.056;2024-02-23T00:49:16;3.40;2.60;
69224;PMS1003;56333;51.306;17.056;2024-02-23T00:50:45;4.50;2.70;
69224;PMS1003;56333;51.306;17.056;2024-02-23T00:52:13;3.90;2.90;
69224;PMS1003;56333;51.306;17.056;2024-02-23T00:53:43;3.80;2.60;
69224;PMS1003;56333;51.306;17.056;2024-02-23T00:55:11;3.50;2.80;
69224;PMS1003;56333;51.306;17.056;2024-02-23T00:56:40;3.70;2.70;
69224;PMS1003;56333;51.306;17.056;2024-02-23T00:58:08;3.10;2.30;
69224;PMS1003;56333;51.306;17.056;2024-02-23T00:59:37;3.90;2.40;
69224;PMS1003;56333;51.306;17.056;2024-02-23T01:01:06;3.50;2.50;
69224;PMS1003;56333;51.306;17.056;2024-02-23T01:02:35;3.00;2.20;
69224;PMS1003;56333;51.306;17.056;2024-02-23T01:04:04;2.60;1.80;
69224;PMS1003;56333;51.306;17.056;2024-02-23T01:05:32;3.00;2.00;
69224;PMS1003;56333;51.306;17.056;2024-02-23T01:07:02;2.60;1.90;
69224;PMS1003;56333;51.306;17.056;2024-02-23T01:08:30;2.50;1.70;
69224;PMS1003;56333;51.306;17.056;2024-02-23T01:09:59;3.00;1.90;
69224;PMS1003;56333;51.306;17.056;2024-02-23T01:11:29;2.60;1.60;
69224;PMS1003;56333;51.306;17.056;2024-02-23T01:12:58;2.60;1.90;
69224;PMS1003;56333;51.306;17.056;2024-02-23T01:14:27;4.30;2.20;
69224;PMS1003;56333;51.306;17.056;2024-02-23T01:15:55;2.50;1.50;
69224;PMS1003;56333;51.306;17.056;2024-02-23T01:17:24;3.80;2.00;
69224;PMS1003;56333;51.306;17.056;2024-02-23T01:18:52;3.30;2.30;
69224;PMS1003;56333;51.306;17.056;2024-02-23T01:20:21;3.20;2.30;
69224;PMS1003;56333;51.306;17.056;2024-02-23T01:21:49;3.20;2.10;
69224;PMS1003;56333;51.306;17.056;2024-02-23T01:23:25;2.10;1.60;
69224;PMS1003;56333;51.306;17.056;2024-02-23T01:24:53;2.10;1.30;
69224;PMS1003;56333;51.306;17.056;2024-02-23T01:26:22;1.80;1.30;
69224;PMS1003;56333;51.306;17.056;2024-02-23T01:27:50;2.80;1.80;
69224;PMS1003;56333;51.306;17.056;2024-02-23T01:29:19;3.20;1.70;
69224;PMS1003;56333;51.306;17.056;2024-02-23T01:30:47;2.30;1.70;
69224;PMS1003;56333;51.306;17.056;2024-02-23T01:32:16;2.40;1.40;
69224;PMS1003;56333;51.306;17.056;2024-02-23T01:33:44;2.30;1.60;
69224;PMS1003;56333;51.306;17.056;2024-02-23T01:35:15;2.90;2.00;
69224;PMS1003;56333;51.306;17.056;2024-02-23T01:36:43;2.90;2.10;
69224;PMS1003;56333;51.306;17.056;2024-02-23T01:38:12;2.70;2.00;
69224;PMS1003;56333;51.306;17.056;2024-02-23T01:39:44;3.30;2.00;
69224;PMS1003;56333;51.306;17.056;2024-02-23T01:41:13;2.80;1.80;
69224;PMS1003;56333;51.306;17.056;2024-02-23T01:42:41;3.00;2.20;
69224;PMS1003;56333;51.306;17.056;2024-02-23T01:44:09;3.10;2.20;
69224;PMS1003;56333;51.306;17.056;2024-02-23T01:45:38;4.10;1.90;
69224;PMS1003;56333;51.306;17.056;2024-02-23T01:47:07;2.60;2.00;
69224;PMS1003;56333;51.306;17.056;2024-02-23T01:48:37;3.10;2.20;
69224;PMS1003;56333;51.306;17.056;2024-02-23T01:50:06;2.70;2.10;
69224;PMS1003;56333;51.306;17.056;2024-02-23T01:51:38;3.30;2.10;
69224;PMS1003;56333;51.306;17.056;2024-02-23T01:53:07;2.90;1.90;
69224;PMS1003;56333;51.306;17.056;2024-02-23T01:54:35;3.10;2.10;
69224;PMS1003;56333;51.306;17.056;2024-02-23T01:56:05;2.90;2.00;
69224;PMS1003;56333;51.306;17.056;2024-02-23T01:57:38;2.60;1.90;
69224;PMS1003;56333;51.306;17.056;2024-02-23T01:59:07;2.50;1.80;
69224;PMS1003;56333;51.306;17.056;2024-02-23T02:00:39;2.70;1.90;
69224;PMS1003;56333;51.306;17.056;2024-02-23T02:02:07;3.10;2.00;
69224;PMS1003;56333;51.306;17.056;2024-02-23T02:03:38;3.30;1.80;
69224;PMS1003;56333;51.306;17.056;2024-02-23T02:05:07;2.40;1.70;
69224;PMS1003;56333;51.306;17.056;2024-02-23T02:06:36;2.30;1.70;
69224;PMS1003;56333;51.306;17.056;2024-02-23T02:08:07;2.40;1.70;
69224;PMS1003;56333;51.306;17.056;2024-02-23T02:09:36;2.50;1.60;
69224;PMS1003;56333;51.306;17.056;2024-02-23T02:11:05;2.70;1.80;
69224;PMS1003;56333;51.306;17.056;2024-02-23T02:12:33;2.00;1.40;
69224;PMS1003;56333;51.306;17.056;2024-02-23T02:14:01;2.00;1.50;
69224;PMS1003;56333;51.306;17.056;2024-02-23T02:15:30;2.60;1.60;
69224;PMS1003;56333;51.306;17.056;2024-02-23T02:16:58;2.70;1.80;
69224;PMS1003;56333;51.306;17.056;2024-02-23T02:18:27;2.10;1.60;
69224;PMS1003;56333;51.306;17.056;2024-02-23T02:19:56;3.50;1.60;
69224;PMS1003;56333;51.306;17.056;2024-02-23T02:21:26;2.10;1.60;
69224;PMS1003;56333;51.306;17.056;2024-02-23T02:22:55;2.90;1.40;
69224;PMS1003;56333;51.306;17.056;2024-02-23T02:24:23;2.10;1.60;
69224;PMS1003;56333;51.306;17.056;2024-02-23T02:25:56;2.50;1.70;
69224;PMS1003;56333;51.306;17.056;2024-02-23T02:27:25;2.40;1.50;
69224;PMS1003;56333;51.306;17.056;2024-02-23T02:28:53;2.00;1.50;
69224;PMS1003;56333;51.306;17.056;2024-02-23T02:30:22;2.20;1.60;
69224;PMS1003;56333;51.306;17.056;2024-02-23T02:31:50;2.30;1.80;
69224;PMS1003;56333;51.306;17.056;2024-02-23T02:33:19;2.40;1.50;
69224;PMS1003;56333;51.306;17.056;2024-02-23T02:34:48;3.40;2.10;
69224;PMS1003;56333;51.306;17.056;2024-02-23T02:36:17;3.80;1.80;
69224;PMS1003;56333;51.306;17.056;2024-02-23T02:37:45;2.20;1.70;
69224;PMS1003;56333;51.306;17.056;2024-02-23T02:39:15;2.50;1.70;
69224;PMS1003;56333;51.306;17.056;2024-02-23T02:40:43;2.40;1.70;
69224;PMS1003;56333;51.306;17.056;2024-02-23T02:42:12;2.60;1.60;
69224;PMS1003;56333;51.306;17.056;2024-02-23T02:43:40;2.40;1.70;
69224;PMS1003;56333;51.306;17.056;2024-02-23T02:45:10;2.20;1.60;
69224;PMS1003;56333;51.306;17.056;2024-02-23T02:46:38;2.80;1.80;
69224;PMS1003;56333;51.306;17.056;2024-02-23T02:48:08;2.90;1.90;
69224;PMS1003;56333;51.306;17.056;2024-02-23T02:49:39;2.60;1.70;
69224;PMS1003;56333;51.306;17.056;2024-02-23T02:51:07;3.30;2.10;
69224;PMS1003;56333;51.306;17.056;2024-02-23T02:52:36;3.40;2.10;
69224;PMS1003;56333;51.306;17.056;2024-02-23T02:54:05;2.50;1.70;
69224;PMS1003;56333;51.306;17.056;2024-02-23T02:55:34;2.50;2.00;
69224;PMS1003;56333;51.306;17.056;2024-02-23T02:57:02;3.40;2.00;
69224;PMS1003;56333;51.306;17.056;2024-02-23T02:58:31;3.40;2.10;
69224;PMS1003;56333;51.306;17.056;2024-02-23T02:59:59;3.20;2.40;
69224;PMS1003;56333;51.306;17.056;2024-02-23T03:01:30;3.10;2.20;
69224;PMS1003;56333;51.306;17.056;2024-02-23T03:02:58;3.20;2.20;
69224;PMS1003;56333;51.306;17.056;2024-02-23T03:04:26;2.90;2.10;
69224;PMS1003;56333;51.306;17.056;2024-02-23T03:05:55;2.60;2.00;
69224;PMS1003;56333;51.306;17.056;2024-02-23T03:07:23;3.40;2.30;
69224;PMS1003;56333;51.306;17.056;2024-02-23T03:08:52;3.10;2.30;
69224;PMS1003;56333;51.306;17.056;2024-02-23T03:10:20;2.80;2.20;
69224;PMS1003;56333;51.306;17.056;2024-02-23T03:11:49;3.10;2.50;
69224;PMS1003;56333;51.306;17.056;2024-02-23T03:13:18;2.90;2.40;
69224;PMS1003;56333;51.306;17.056;2024-02-23T03:14:46;3.30;2.50;
69224;PMS1003;56333;51.306;17.056;2024-02-23T03:16:20;2.90;2.40;
69224;PMS1003;56333;51.306;17.056;2024-02-23T03:17:51;3.10;2.30;
69224;PMS1003;56333;51.306;17.056;2024-02-23T03:19:20;3.10;2.70;
69224;PMS1003;56333;51.306;17.056;2024-02-23T03:20:49;3.20;2.50;
69224;PMS1003;56333;51.306;17.056;2024-02-23T03:22:17;3.70;2.90;
69224;PMS1003;56333;51.306;17.056;2024-02-23T03:23:46;3.10;2.50;
69224;PMS1003;56333;51.306;17.056;2024-02-23T03:25:15;3.70;2.30;
69224;PMS1003;56333;51.306;17.056;2024-02-23T03:26:44;2.80;2.10;
69224;PMS1003;56333;51.306;17.056;2024-02-23T03:28:12;2.80;2.50;
69224;PMS1003;56333;51.306;17.056;2024-02-23T03:29:41;3.20;2.50;
69224;PMS1003;56333;51.306;17.056;2024-02-23T03:31:10;3.30;2.60;
69224;PMS1003;56333;51.306;17.056;2024-02-23T03:32:38;4.00;2.60;
69224;PMS1003;56333;51.306;17.056;2024-02-23T03:34:07;3.50;2.80;
69224;PMS1003;56333;51.306;17.056;2024-02-23T03:35:36;4.10;2.60;
69224;PMS1003;56333;51.306;17.056;2024-02-23T03:37:05;3.50;2.90;
69224;PMS1003;56333;51.306;17.056;2024-02-23T03:38:33;3.70;3.00;
69224;PMS1003;56333;51.306;17.056;2024-02-23T03:40:02;4.80;3.60;
69224;PMS1003;56333;51.306;17.056;2024-02-23T03:41:31;4.90;3.50;
69224;PMS1003;56333;51.306;17.056;2024-02-23T03:43:00;3.50;3.00;
69224;PMS1003;56333;51.306;17.056;2024-02-23T03:44:28;3.50;3.10;
69224;PMS1003;56333;51.306;17.056;2024-02-23T03:45:57;4.50;3.60;
69224;PMS1003;56333;51.306;17.056;2024-02-23T03:47:26;3.80;3.30;
69224;PMS1003;56333;51.306;17.056;2024-02-23T03:48:54;4.60;3.60;
69224;PMS1003;56333;51.306;17.056;2024-02-23T03:50:23;4.20;3.10;
69224;PMS1003;56333;51.306;17.056;2024-02-23T03:51:53;4.30;3.20;
69224;PMS1003;56333;51.306;17.056;2024-02-23T03:53:22;5.30;3.20;
69224;PMS1003;56333;51.306;17.056;2024-02-23T03:54:51;4.20;3.00;
69224;PMS1003;56333;51.306;17.056;2024-02-23T03:56:20;4.00;3.40;
69224;PMS1003;56333;51.306;17.056;2024-02-23T03:57:48;4.00;3.40;
69224;PMS1003;56333;51.306;17.056;2024-02-23T03:59:16;3.50;2.90;
69224;PMS1003;56333;51.306;17.056;2024-02-23T04:00:46;4.80;3.40;
69224;PMS1003;56333;51.306;17.056;2024-02-23T04:02:15;4.70;2.90;
69224;PMS1003;56333;51.306;17.056;2024-02-23T04:03:43;3.70;3.20;
69224;PMS1003;56333;51.306;17.056;2024-02-23T04:05:12;3.60;2.90;
69224;PMS1003;56333;51.306;17.056;2024-02-23T04:06:41;5.00;2.90;
69224;PMS1003;56333;51.306;17.056;2024-02-23T04:08:10;4.30;3.00;
69224;PMS1003;56333;51.306;17.056;2024-02-23T04:09:38;6.80;3.20;
69224;PMS1003;56333;51.306;17.056;2024-02-23T04:11:07;3.50;3.10;
69224;PMS1003;56333;51.306;17.056;2024-02-23T04:12:35;4.60;3.50;
69224;PMS1003;56333;51.306;17.056;2024-02-23T04:14:04;4.10;3.30;
69224;PMS1003;56333;51.306;17.056;2024-02-23T04:15:33;3.70;3.20;
69224;PMS1003;56333;51.306;17.056;2024-02-23T04:17:01;3.70;3.30;
69224;PMS1003;56333;51.306;17.056;2024-02-23T04:18:30;3.60;3.00;
69224;PMS1003;56333;51.306;17.056;2024-02-23T04:20:00;3.90;3.20;
69224;PMS1003;56333;51.306;17.056;2024-02-23T04:21:35;4.80;3.30;
69224;PMS1003;56333;51.306;17.056;2024-02-23T04:23:03;3.90;3.20;
69224;PMS1003;56333;51.306;17.056;2024-02-23T04:24:32;4.50;3.20;
69224;PMS1003;56333;51.306;17.056;2024-02-23T04:26:01;4.40;3.30;
69224;PMS1003;56333;51.306;17.056;2024-02-23T04:27:30;4.10;3.30;
69224;PMS1003;56333;51.306;17.056;2024-02-23T04:28:58;4.10;3.50;
69224;PMS1003;56333;51.306;17.056;2024-02-23T04:30:27;3.90;3.20;
69224;PMS1003;56333;51.306;17.056;2024-02-23T04:31:55;3.50;3.00;
69224;PMS1003;56333;51.306;17.056;2024-02-23T04:33:23;4.00;3.40;
69224;PMS1003;56333;51.306;17.056;2024-02-23T04:34:52;4.00;3.50;
69224;PMS1003;56333;51.306;17.056;2024-02-23T04:36:23;4.40;3.40;
69224;PMS1003;56333;51.306;17.056;2024-02-23T04:37:51;4.00;3.60;
69224;PMS1003;56333;51.306;17.056;2024-02-23T04:39:19;4.20;3.10;
69224;PMS1003;56333;51.306;17.056;2024-02-23T04:40:48;3.80;3.00;
69224;PMS1003;56333;51.306;17.056;2024-02-23T04:42:16;4.50;3.90;
69224;PMS1003;56333;51.306;17.056;2024-02-23T04:43:44;4.60;4.00;
69224;PMS1003;56333;51.306;17.056;2024-02-23T04:45:14;4.50;3.90;
69224;PMS1003;56333;51.306;17.056;2024-02-23T04:46:42;4.50;3.30;
69224;PMS1003;56333;51.306;17.056;2024-02-23T04:48:11;3.80;3.10;
69224;PMS1003;56333;51.306;17.056;2024-02-23T04:49:39;4.10;3.00;
69224;PMS1003;56333;51.306;17.056;2024-02-23T04:51:08;3.40;2.80;
69224;PMS1003;56333;51.306;17.056;2024-02-23T04:52:37;4.20;3.10;
69224;PMS1003;56333;51.306;17.056;2024-02-23T04:54:05;3.60;2.90;
69224;PMS1003;56333;51.306;17.056;2024-02-23T04:55:34;4.00;3.10;
69224;PMS1003;56333;51.306;17.056;2024-02-23T04:57:03;3.90;3.20;
69224;PMS1003;56333;51.306;17.056;2024-02-23T04:58:31;3.90;3.10;
69224;PMS1003;56333;51.306;17.056;2024-02-23T05:00:00;3.70;3.00;
69224;PMS1003;56333;51.306;17.056;2024-02-23T05:01:29;3.50;3.00;
69224;PMS1003;56333;51.306;17.056;2024-02-23T05:03:02;4.30;3.30;
69224;PMS1003;56333;51.306;17.056;2024-02-23T05:04:32;4.40;3.10;
69224;PMS1003;56333;51.306;17.056;2024-02-23T05:06:00;4.50;3.40;
69224;PMS1003;56333;51.306;17.056;2024-02-23T05:07:28;4.40;3.40;
69224;PMS1003;56333;51.306;17.056;2024-02-23T05:08:58;4.70;3.30;
69224;PMS1003;56333;51.306;17.056;2024-02-23T05:10:27;4.70;3.30;
69224;PMS1003;56333;51.306;17.056;2024-02-23T05:11:56;4.30;3.70;
69224;PMS1003;56333;51.306;17.056;2024-02-23T05:13:25;4.30;3.80;
69224;PMS1003;56333;51.306;17.056;2024-02-23T05:14:53;5.00;3.80;
69224;PMS1003;56333;51.306;17.056;2024-02-23T05:16:21;6.20;3.50;
69224;PMS1003;56333;51.306;17.056;2024-02-23T05:17:50;4.70;3.80;
69224;PMS1003;56333;51.306;17.056;2024-02-23T05:19:18;5.50;3.80;
69224;PMS1003;56333;51.306;17.056;2024-02-23T05:20:47;5.30;4.00;
69224;PMS1003;56333;51.306;17.056;2024-02-23T05:22:16;4.90;3.70;
69224;PMS1003;56333;51.306;17.056;2024-02-23T05:23:46;4.50;3.60;
69224;PMS1003;56333;51.306;17.056;2024-02-23T05:25:14;5.30;4.50;
69224;PMS1003;56333;51.306;17.056;2024-02-23T05:26:43;4.80;3.50;
69224;PMS1003;56333;51.306;17.056;2024-02-23T05:28:12;5.30;3.70;
69224;PMS1003;56333;51.306;17.056;2024-02-23T05:29:41;5.00;3.70;
69224;PMS1003;56333;51.306;17.056;2024-02-23T05:31:11;4.50;3.60;
69224;PMS1003;56333;51.306;17.056;2024-02-23T05:32:40;4.20;3.60;
69224;PMS1003;56333;51.306;17.056;2024-02-23T05:34:09;4.20;3.70;
69224;PMS1003;56333;51.306;17.056;2024-02-23T05:35:37;4.90;3.70;
69224;PMS1003;56333;51.306;17.056;2024-02-23T05:37:05;5.10;3.80;
69224;PMS1003;56333;51.306;17.056;2024-02-23T05:38:34;4.30;3.50;
69224;PMS1003;56333;51.306;17.056;2024-02-23T05:40:03;4.60;3.60;
69224;PMS1003;56333;51.306;17.056;2024-02-23T05:41:36;5.40;3.70;
69224;PMS1003;56333;51.306;17.056;2024-02-23T05:43:05;4.90;3.70;
69224;PMS1003;56333;51.306;17.056;2024-02-23T05:44:34;4.60;3.80;
69224;PMS1003;56333;51.306;17.056;2024-02-23T05:46:02;4.90;3.80;
69224;PMS1003;56333;51.306;17.056;2024-02-23T05:47:31;6.10;4.10;
69224;PMS1003;56333;51.306;17.056;2024-02-23T05:48:59;4.70;3.90;
69224;PMS1003;56333;51.306;17.056;2024-02-23T05:50:29;4.60;3.70;
69224;PMS1003;56333;51.306;17.056;2024-02-23T05:51:58;5.00;3.70;
69224;PMS1003;56333;51.306;17.056;2024-02-23T05:53:26;4.30;3.60;
69224;PMS1003;56333;51.306;17.056;2024-02-23T05:54:58;5.60;3.80;
69224;PMS1003;56333;51.306;17.056;2024-02-23T05:56:27;5.00;3.70;
69224;PMS1003;56333;51.306;17.056;2024-02-23T05:57:56;4.50;3.40;
69224;PMS1003;56333;51.306;17.056;2024-02-23T05:59:24;4.60;3.60;
69224;PMS1003;56333;51.306;17.056;2024-02-23T06:00:53;4.60;3.60;
69224;PMS1003;56333;51.306;17.056;2024-02-23T06:02:22;4.60;3.40;
69224;PMS1003;56333;51.306;17.056;2024-02-23T06:03:51;4.00;3.20;
69224;PMS1003;56333;51.306;17.056;2024-02-23T06:05:20;4.00;3.30;
69224;PMS1003;56333;51.306;17.056;2024-02-23T06:06:49;4.80;3.80;
69224;PMS1003;56333;51.306;17.056;2024-02-23T06:08:17;3.80;3.20;
69224;PMS1003;56333;51.306;17.056;2024-02-23T06:09:46;4.10;3.30;
69224;PMS1003;56333;51.306;17.056;2024-02-23T06:11:14;4.80;3.90;
69224;PMS1003;56333;51.306;17.056;2024-02-23T06:12:43;6.50;4.60;
69224;PMS1003;56333;51.306;17.056;2024-02-23T06:14:11;5.70;4.50;
69224;PMS1003;56333;51.306;17.056;2024-02-23T06:15:40;5.40;4.10;
69224;PMS1003;56333;51.306;17.056;2024-02-23T06:17:09;4.90;4.00;
69224;PMS1003;56333;51.306;17.056;2024-02-23T06:18:37;4.80;4.00;
69224;PMS1003;56333;51.306;17.056;2024-02-23T06:20:10;6.80;4.50;
69224;PMS1003;56333;51.306;17.056;2024-02-23T06:21:39;6.10;4.40;
69224;PMS1003;56333;51.306;17.056;2024-02-23T06:23:08;6.00;4.50;
69224;PMS1003;56333;51.306;17.056;2024-02-23T06:24:36;5.70;4.40;
69224;PMS1003;56333;51.306;17.056;2024-02-23T06:26:06;6.90;4.70;
69224;PMS1003;56333;51.306;17.056;2024-02-23T06:27:34;6.10;4.70;
69224;PMS1003;56333;51.306;17.056;2024-02-23T06:29:04;6.50;5.00;
69224;PMS1003;56333;51.306;17.056;2024-02-23T06:30:34;6.10;4.60;
69224;PMS1003;56333;51.306;17.056;2024-02-23T06:32:03;7.60;5.20;
69224;PMS1003;56333;51.306;17.056;2024-02-23T06:33:32;6.80;5.10;
69224;PMS1003;56333;51.306;17.056;2024-02-23T06:35:00;6.80;5.40;
69224;PMS1003;56333;51.306;17.056;2024-02-23T06:36:32;6.10;4.50;
69224;PMS1003;56333;51.306;17.056;2024-02-23T06:38:00;5.90;4.50;
69224;PMS1003;56333;51.306;17.056;2024-02-23T06:39:29;6.60;4.10;
69224;PMS1003;56333;51.306;17.056;2024-02-23T06:40:57;7.00;4.30;
69224;PMS1003;56333;51.306;17.056;2024-02-23T06:42:26;5.10;3.80;
69224;PMS1003;56333;51.306;17.056;2024-02-23T06:43:54;5.20;3.90;
69224;PMS1003;56333;51.306;17.056;2024-02-23T06:45:23;4.60;3.60;
69224;PMS1003;56333;51.306;17.056;2024-02-23T06:46:51;5.50;3.90;
69224;PMS1003;56333;51.306;17.056;2024-02-23T06:48:20;4.50;3.50;
69224;PMS1003;56333;51.306;17.056;2024-02-23T06:49:49;4.70;3.80;
69224;PMS1003;56333;51.306;17.056;2024-02-23T06:51:18;5.00;3.90;
69224;PMS1003;56333;51.306;17.056;2024-02-23T06:52:47;4.90;4.00;
69224;PMS1003;56333;51.306;17.056;2024-02-23T06:54:15;5.80;4.80;
69224;PMS1003;56333;51.306;17.056;2024-02-23T06:55:44;5.70;4.20;
69224;PMS1003;56333;51.306;17.056;2024-02-23T06:57:12;5.90;4.60;
69224;PMS1003;56333;51.306;17.056;2024-02-23T06:58:41;6.30;4.80;
69224;PMS1003;56333;51.306;17.056;2024-02-23T07:00:12;6.40;5.10;
69224;PMS1003;56333;51.306;17.056;2024-02-23T07:01:51;9.20;6.80;
69224;PMS1003;56333;51.306;17.056;2024-02-23T07:03:21;5.30;4.50;
69224;PMS1003;56333;51.306;17.056;2024-02-23T07:04:49;5.30;3.90;
69224;PMS1003;56333;51.306;17.056;2024-02-23T07:06:20;5.10;4.30;
69224;PMS1003;56333;51.306;17.056;2024-02-23T07:07:48;6.50;4.60;
69224;PMS1003;56333;51.306;17.056;2024-02-23T07:09:17;5.50;4.70;
69224;PMS1003;56333;51.306;17.056;2024-02-23T07:10:46;5.80;4.60;
69224;PMS1003;56333;51.306;17.056;2024-02-23T07:12:15;6.00;4.30;
69224;PMS1003;56333;51.306;17.056;2024-02-23T07:13:46;5.60;4.70;
69224;PMS1003;56333;51.306;17.056;2024-02-23T07:15:15;7.50;6.60;
69224;PMS1003;56333;51.306;17.056;2024-02-23T07:16:44;13.70;10.60;
69224;PMS1003;56333;51.306;17.056;2024-02-23T07:18:13;13.40;9.30;
69224;PMS1003;56333;51.306;17.056;2024-02-23T07:19:41;9.40;7.10;
69224;PMS1003;56333;51.306;17.056;2024-02-23T07:21:10;9.20;7.20;
69224;PMS1003;56333;51.306;17.056;2024-02-23T07:22:38;9.60;6.30;
69224;PMS1003;56333;51.306;17.056;2024-02-23T07:24:10;8.40;6.20;
69224;PMS1003;56333;51.306;17.056;2024-02-23T07:25:39;9.60;7.70;
69224;PMS1003;56333;51.306;17.056;2024-02-23T07:27:09;15.70;11.70;
69224;PMS1003;56333;51.306;17.056;2024-02-23T07:28:38;26.60;20.20;
69224;PMS1003;56333;51.306;17.056;2024-02-23T07:30:10;22.70;18.10;
69224;PMS1003;56333;51.306;17.056;2024-02-23T07:31:39;13.20;9.80;
69224;PMS1003;56333;51.306;17.056;2024-02-23T07:33:08;13.70;10.20;
69224;PMS1003;56333;51.306;17.056;2024-02-23T07:34:36;16.70;14.30;
69224;PMS1003;56333;51.306;17.056;2024-02-23T07:36:06;15.00;12.20;
69224;PMS1003;56333;51.306;17.056;2024-02-23T07:37:37;11.60;9.60;
69224;PMS1003;56333;51.306;17.056;2024-02-23T07:39:07;11.20;8.80;
69224;PMS1003;56333;51.306;17.056;2024-02-23T07:40:35;10.00;7.20;
69224;PMS1003;56333;51.306;17.056;2024-02-23T07:42:06;9.70;6.90;
69224;PMS1003;56333;51.306;17.056;2024-02-23T07:43:36;9.50;6.80;
69224;PMS1003;56333;51.306;17.056;2024-02-23T07:45:06;8.80;5.70;
69224;PMS1003;56333;51.306;17.056;2024-02-23T07:48:03;5.90;4.50;
69224;PMS1003;56333;51.306;17.056;2024-02-23T07:49:34;6.60;4.50;
69224;PMS1003;56333;51.306;17.056;2024-02-23T07:51:03;5.90;3.90;
69224;PMS1003;56333;51.306;17.056;2024-02-23T07:52:31;4.50;3.60;
69224;PMS1003;56333;51.306;17.056;2024-02-23T07:54:00;4.80;3.20;
69224;PMS1003;56333;51.306;17.056;2024-02-23T07:55:28;4.70;3.20;
69224;PMS1003;56333;51.306;17.056;2024-02-23T07:56:57;4.00;3.20;
69224;PMS1003;56333;51.306;17.056;2024-02-23T07:58:26;4.20;3.30;
69224;PMS1003;56333;51.306;17.056;2024-02-23T07:59:54;4.70;2.70;
69224;PMS1003;56333;51.306;17.056;2024-02-23T08:01:23;3.10;2.40;
69224;PMS1003;56333;51.306;17.056;2024-02-23T08:02:51;4.90;2.80;
69224;PMS1003;56333;51.306;17.056;2024-02-23T08:04:22;5.90;5.30;
69224;PMS1003;56333;51.306;17.056;2024-02-23T08:05:51;4.30;3.30;
69224;PMS1003;56333;51.306;17.056;2024-02-23T08:07:19;5.00;4.00;
69224;PMS1003;56333;51.306;17.056;2024-02-23T08:08:48;6.90;6.00;
69224;PMS1003;56333;51.306;17.056;2024-02-23T08:10:19;7.60;5.70;
69224;PMS1003;56333;51.306;17.056;2024-02-23T08:11:47;4.50;2.90;
69224;PMS1003;56333;51.306;17.056;2024-02-23T08:13:16;3.90;2.70;
69224;PMS1003;56333;51.306;17.056;2024-02-23T08:14:45;3.40;2.30;
69224;PMS1003;56333;51.306;17.056;2024-02-23T08:16:16;5.40;2.40;
69224;PMS1003;56333;51.306;17.056;2024-02-23T08:17:45;4.50;2.30;
69224;PMS1003;56333;51.306;17.056;2024-02-23T08:19:14;4.00;2.30;
69224;PMS1003;56333;51.306;17.056;2024-02-23T08:20:43;3.30;2.40;
69224;PMS1003;56333;51.306;17.056;2024-02-23T08:22:11;4.00;2.50;
69224;PMS1003;56333;51.306;17.056;2024-02-23T08:23:40;3.30;1.90;
69224;PMS1003;56333;51.306;17.056;2024-02-23T08:25:10;2.60;1.90;
69224;PMS1003;56333;51.306;17.056;2024-02-23T08:26:38;3.80;1.80;
69224;PMS1003;56333;51.306;17.056;2024-02-23T08:28:09;4.00;2.00;
69224;PMS1003;56333;51.306;17.056;2024-02-23T08:29:40;3.40;1.90;
69224;PMS1003;56333;51.306;17.056;2024-02-23T08:31:09;7.50;6.10;
69224;PMS1003;56333;51.306;17.056;2024-02-23T08:32:38;6.60;5.10;
69224;PMS1003;56333;51.306;17.056;2024-02-23T08:34:06;5.70;3.00;
69224;PMS1003;56333;51.306;17.056;2024-02-23T08:35:35;6.50;4.60;
69224;PMS1003;56333;51.306;17.056;2024-02-23T08:37:03;4.30;2.20;
69224;PMS1003;56333;51.306;17.056;2024-02-23T08:38:32;3.70;1.70;
69224;PMS1003;56333;51.306;17.056;2024-02-23T08:40:01;5.00;2.50;
69224;PMS1003;56333;51.306;17.056;2024-02-23T08:41:32;4.50;2.00;
69224;PMS1003;56333;51.306;17.056;2024-02-23T08:43:00;3.30;1.50;
69224;PMS1003;56333;51.306;17.056;2024-02-23T08:44:30;4.30;1.80;
69224;PMS1003;56333;51.306;17.056;2024-02-23T08:45:58;2.80;1.20;
69224;PMS1003;56333;51.306;17.056;2024-02-23T08:47:27;3.80;1.30;
69224;PMS1003;56333;51.306;17.056;2024-02-23T08:48:58;2.10;1.20;
69224;PMS1003;56333;51.306;17.056;2024-02-23T08:50:26;2.60;1.50;
69224;PMS1003;56333;51.306;17.056;2024-02-23T08:51:55;5.80;4.20;
69224;PMS1003;56333;51.306;17.056;2024-02-23T08:53:24;4.40;1.90;
69224;PMS1003;56333;51.306;17.056;2024-02-23T08:54:53;2.20;1.40;
69224;PMS1003;56333;51.306;17.056;2024-02-23T08:56:22;2.10;0.90;
69224;PMS1003;56333;51.306;17.056;2024-02-23T08:57:51;1.00;0.80;
69224;PMS1003;56333;51.306;17.056;2024-02-23T08:59:21;2.40;1.30;
69224;PMS1003;56333;51.306;17.056;2024-02-23T09:00:49;3.60;1.50;
69224;PMS1003;56333;51.306;17.056;2024-02-23T09:02:18;3.30;1.10;
69224;PMS1003;56333;51.306;17.056;2024-02-23T09:03:46;2.50;0.90;
69224;PMS1003;56333;51.306;17.056;2024-02-23T09:05:15;3.60;0.90;
69224;PMS1003;56333;51.306;17.056;2024-02-23T09:06:44;2.40;1.20;
69224;PMS1003;56333;51.306;17.056;2024-02-23T09:08:15;2.40;1.00;